sensor_id;sensor_type;location;lat;lon;timestamp;pressure;altitude;pressure_sealevel;temperature;humidity
36062;BME280;22123;52.412;20.970;2023-09-30T00:01:10;100837.50;;;16.25;100.00
36062;BME280;22123;52.412;20.970;2023-09-30T00:03:36;100792.41;;;15.96;100.00
36062;BME280;22123;52.412;20.970;2023-09-30T00:06:02;100819.25;;;16.12;100.00
36062;BME280;22123;52.412;20.970;2023-09-30T00:08:27;100825.16;;;16.23;100.00
36062;BME280;22123;52.412;20.970;2023-09-30T00:10:53;100838.53;;;16.24;100.00
36062;BME280;22123;52.412;20.970;2023-09-30T00:13:19;100840.22;;;16.25;100.00
36062;BME280;22123;52.412;20.970;2023-09-30T00:15:45;100826.38;;;16.20;100.00
36062;BME280;22123;52.412;20.970;2023-09-30T00:18:10;100834.78;;;16.25;100.00
36062;BME280;22123;52.412;20.970;2023-09-30T00:20:36;100782.81;;;15.93;100.00
36062;BME280;22123;52.412;20.970;2023-09-30T00:23:02;100835.19;;;16.22;100.00
36062;BME280;22123;52.412;20.970;2023-09-30T00:25:28;100818.41;;;16.12;100.00
36062;BME280;22123;52.412;20.970;2023-09-30T00:27:54;100822.13;;;16.04;100.00
36062;BME280;22123;52.412;20.970;2023-09-30T00:30:19;100831.81;;;16.13;100.00
36062;BME280;22123;52.412;20.970;2023-09-30T00:32:45;100793.66;;;15.93;100.00
36062;BME280;22123;52.412;20.970;2023-09-30T00:35:11;100822.16;;;16.11;100.00
36062;BME280;22123;52.412;20.970;2023-09-30T00:37:40;100767.28;;;15.80;100.00
36062;BME280;22123;52.412;20.970;2023-09-30T00:40:07;100821.09;;;16.12;100.00
36062;BME280;22123;52.412;20.970;2023-09-30T00:42:33;100755.03;;;15.63;100.00
36062;BME280;22123;52.412;20.970;2023-09-30T00:44:59;100790.28;;;15.91;100.00
36062;BME280;22123;52.412;20.970;2023-09-30T00:47:25;100798.25;;;15.93;100.00
36062;BME280;22123;52.412;20.970;2023-09-30T00:49:52;100809.38;;;16.05;100.00
36062;BME280;22123;52.412;20.970;2023-09-30T00:52:18;100818.56;;;16.04;100.00
36062;BME280;22123;52.412;20.970;2023-09-30T00:54:44;100802.69;;;16.01;100.00
36062;BME280;22123;52.412;20.970;2023-09-30T00:57:11;100826.53;;;16.12;100.00
36062;BME280;22123;52.412;20.970;2023-09-30T00:59:37;100794.44;;;15.87;100.00
36062;BME280;22123;52.412;20.970;2023-09-30T01:02:03;100814.09;;;15.89;100.00
36062;BME280;22123;52.412;20.970;2023-09-30T01:04:29;100824.97;;;15.96;100.00
36062;BME280;22123;52.412;20.970;2023-09-30T01:06:55;100813.84;;;15.84;100.00
36062;BME280;22123;52.412;20.970;2023-09-30T01:09:21;100841.25;;;15.89;100.00
36062;BME280;22123;52.412;20.970;2023-09-30T01:11:47;100808.75;;;15.74;100.00
36062;BME280;22123;52.412;20.970;2023-09-30T01:14:31;100827.81;;;15.81;100.00
36062;BME280;22123;52.412;20.970;2023-09-30T01:16:57;100819.66;;;15.81;100.00
36062;BME280;22123;52.412;20.970;2023-09-30T01:19:24;100828.69;;;15.81;100.00
36062;BME280;22123;52.412;20.970;2023-09-30T01:21:57;100823.41;;;15.80;100.00
36062;BME280;22123;52.412;20.970;2023-09-30T01:24:23;100809.31;;;15.70;100.00
36062;BME280;22123;52.412;20.970;2023-09-30T01:26:49;100825.47;;;15.78;100.00
36062;BME280;22123;52.412;20.970;2023-09-30T01:29:14;100804.28;;;15.67;100.00
36062;BME280;22123;52.412;20.970;2023-09-30T01:31:40;100816.69;;;15.76;100.00
36062;BME280;22123;52.412;20.970;2023-09-30T01:34:06;100806.81;;;15.68;100.00
36062;BME280;22123;52.412;20.970;2023-09-30T01:36:32;100821.28;;;15.75;100.00
36062;BME280;22123;52.412;20.970;2023-09-30T01:38:57;100795.25;;;15.59;100.00
36062;BME280;22123;52.412;20.970;2023-09-30T01:41:23;100816.69;;;15.76;100.00
36062;BME280;22123;52.412;20.970;2023-09-30T01:43:49;100792.16;;;15.62;100.00
36062;BME280;22123;52.412;20.970;2023-09-30T01:46:15;100771.19;;;15.50;100.00
36062;BME280;22123;52.412;20.970;2023-09-30T01:48:41;100763.22;;;15.41;100.00
36062;BME280;22123;52.412;20.970;2023-09-30T01:51:07;100809.59;;;15.75;100.00
36062;BME280;22123;52.412;20.970;2023-09-30T01:53:33;100775.59;;;15.51;100.00
36062;BME280;22123;52.412;20.970;2023-09-30T01:55:59;100776.25;;;15.53;100.00
36062;BME280;22123;52.412;20.970;2023-09-30T01:58:25;100806.41;;;15.71;100.00
36062;BME280;22123;52.412;20.970;2023-09-30T02:00:51;100805.59;;;15.71;100.00
36062;BME280;22123;52.412;20.970;2023-09-30T02:03:17;100766.75;;;15.42;100.00
36062;BME280;22123;52.412;20.970;2023-09-30T02:05:43;100778.97;;;15.53;100.00
36062;BME280;22123;52.412;20.970;2023-09-30T02:08:09;100799.06;;;15.65;100.00
36062;BME280;22123;52.412;20.970;2023-09-30T02:10:35;100762.00;;;15.44;100.00
36062;BME280;22123;52.412;20.970;2023-09-30T02:13:01;100791.53;;;15.60;100.00
36062;BME280;22123;52.412;20.970;2023-09-30T02:15:27;100776.19;;;15.46;100.00
36062;BME280;22123;52.412;20.970;2023-09-30T02:17:52;100793.63;;;15.58;100.00
36062;BME280;22123;52.412;20.970;2023-09-30T02:20:18;100743.47;;;15.26;100.00
36062;BME280;22123;52.412;20.970;2023-09-30T02:22:44;100791.47;;;15.54;100.00
36062;BME280;22123;52.412;20.970;2023-09-30T02:25:12;100762.91;;;15.29;100.00
36062;BME280;22123;52.412;20.970;2023-09-30T02:27:40;100780.97;;;15.44;100.00
36062;BME280;22123;52.412;20.970;2023-09-30T02:30:07;100777.38;;;15.37;100.00
36062;BME280;22123;52.412;20.970;2023-09-30T02:32:33;100799.19;;;15.50;100.00
36062;BME280;22123;52.412;20.970;2023-09-30T02:34:58;100805.44;;;15.51;100.00
36062;BME280;22123;52.412;20.970;2023-09-30T02:37:24;100722.66;;;15.05;100.00
36062;BME280;22123;52.412;20.970;2023-09-30T02:39:50;100803.75;;;15.50;100.00
36062;BME280;22123;52.412;20.970;2023-09-30T02:42:16;100768.34;;;15.29;100.00
36062;BME280;22123;52.412;20.970;2023-09-30T02:44:41;100795.16;;;15.46;100.00
36062;BME280;22123;52.412;20.970;2023-09-30T02:47:07;100771.25;;;15.28;100.00
36062;BME280;22123;52.412;20.970;2023-09-30T02:49:33;100771.41;;;15.26;100.00
36062;BME280;22123;52.412;20.970;2023-09-30T02:51:59;100794.06;;;15.40;100.00
36062;BME280;22123;52.412;20.970;2023-09-30T02:54:25;100774.53;;;15.23;100.00
36062;BME280;22123;52.412;20.970;2023-09-30T02:56:50;100796.78;;;15.40;100.00
36062;BME280;22123;52.412;20.970;2023-09-30T02:59:16;100780.16;;;15.22;100.00
36062;BME280;22123;52.412;20.970;2023-09-30T03:01:42;100796.72;;;15.34;100.00
36062;BME280;22123;52.412;20.970;2023-09-30T03:04:08;100769.69;;;15.19;100.00
36062;BME280;22123;52.412;20.970;2023-09-30T03:06:34;100798.38;;;15.28;100.00
36062;BME280;22123;52.412;20.970;2023-09-30T03:08:59;100793.69;;;15.22;100.00
36062;BME280;22123;52.412;20.970;2023-09-30T03:11:25;100782.66;;;15.02;100.00
36062;BME280;22123;52.412;20.970;2023-09-30T03:13:52;100757.91;;;14.83;100.00
36062;BME280;22123;52.412;20.970;2023-09-30T03:16:18;100793.31;;;15.03;100.00
36062;BME280;22123;52.412;20.970;2023-09-30T03:18:44;100757.91;;;14.83;100.00
36062;BME280;22123;52.412;20.970;2023-09-30T03:21:12;100789.78;;;15.03;100.00
36062;BME280;22123;52.412;20.970;2023-09-30T03:23:38;100741.38;;;14.78;100.00
36062;BME280;22123;52.412;20.970;2023-09-30T03:26:04;100777.25;;;15.02;100.00
36062;BME280;22123;52.412;20.970;2023-09-30T03:28:30;100742.19;;;14.78;100.00
36062;BME280;22123;52.412;20.970;2023-09-30T03:30:56;100771.97;;;14.93;100.00
36062;BME280;22123;52.412;20.970;2023-09-30T03:33:22;100756.59;;;14.79;100.00
36062;BME280;22123;52.412;20.970;2023-09-30T03:35:47;100778.63;;;14.91;100.00
36062;BME280;22123;52.412;20.970;2023-09-30T03:38:13;100760.34;;;14.78;100.00
36062;BME280;22123;52.412;20.970;2023-09-30T03:40:40;100759.72;;;14.76;100.00
36062;BME280;22123;52.412;20.970;2023-09-30T03:43:05;100747.09;;;14.68;100.00
36062;BME280;22123;52.412;20.970;2023-09-30T03:45:31;100742.75;;;14.67;100.00
36062;BME280;22123;52.412;20.970;2023-09-30T03:47:57;100734.41;;;14.69;100.00
36062;BME280;22123;52.412;20.970;2023-09-30T03:50:23;100727.03;;;14.63;100.00
36062;BME280;22123;52.412;20.970;2023-09-30T03:52:49;100727.91;;;14.63;100.00
36062;BME280;22123;52.412;20.970;2023-09-30T03:55:16;100747.28;;;14.67;100.00
36062;BME280;22123;52.412;20.970;2023-09-30T03:57:42;100728.25;;;14.60;100.00
36062;BME280;22123;52.412;20.970;2023-09-30T04:00:08;100771.66;;;14.82;100.00
36062;BME280;22123;52.412;20.970;2023-09-30T04:02:34;100788.47;;;14.77;100.00
36062;BME280;22123;52.412;20.970;2023-09-30T04:05:00;100780.22;;;14.85;100.00
36062;BME280;22123;52.412;20.970;2023-09-30T04:07:26;100762.34;;;14.69;100.00
36062;BME280;22123;52.412;20.970;2023-09-30T04:09:51;100762.16;;;14.71;100.00
36062;BME280;22123;52.412;20.970;2023-09-30T04:12:17;100760.00;;;14.66;100.00
36062;BME280;22123;52.412;20.970;2023-09-30T04:14:43;100761.50;;;14.69;100.00
36062;BME280;22123;52.412;20.970;2023-09-30T04:17:09;100750.59;;;14.62;100.00
36062;BME280;22123;52.412;20.970;2023-09-30T04:19:35;100750.88;;;14.67;100.00
36062;BME280;22123;52.412;20.970;2023-09-30T04:22:01;100745.63;;;14.66;100.00
36062;BME280;22123;52.412;20.970;2023-09-30T04:24:27;100728.59;;;14.57;100.00
36062;BME280;22123;52.412;20.970;2023-09-30T04:26:52;100735.25;;;14.69;100.00
36062;BME280;22123;52.412;20.970;2023-09-30T04:29:20;100750.53;;;14.77;100.00
36062;BME280;22123;52.412;20.970;2023-09-30T04:31:45;100780.94;;;14.94;100.00
36062;BME280;22123;52.412;20.970;2023-09-30T04:34:11;100755.19;;;14.83;100.00
36062;BME280;22123;52.412;20.970;2023-09-30T04:36:37;100773.63;;;14.94;100.00
36062;BME280;22123;52.412;20.970;2023-09-30T04:39:03;100766.28;;;14.88;100.00
36062;BME280;22123;52.412;20.970;2023-09-30T04:41:29;100772.03;;;15.00;100.00
36062;BME280;22123;52.412;20.970;2023-09-30T04:43:54;100759.06;;;14.95;100.00
36062;BME280;22123;52.412;20.970;2023-09-30T04:46:20;100765.56;;;15.01;100.00
36062;BME280;22123;52.412;20.970;2023-09-30T04:48:46;100736.97;;;14.77;100.00
36062;BME280;22123;52.412;20.970;2023-09-30T04:51:11;100772.03;;;15.00;100.00
36062;BME280;22123;52.412;20.970;2023-09-30T04:53:37;100737.50;;;14.87;100.00
36062;BME280;22123;52.412;20.970;2023-09-30T04:56:03;100764.78;;;15.07;100.00
36062;BME280;22123;52.412;20.970;2023-09-30T04:58:29;100685.94;;;14.59;100.00
36062;BME280;22123;52.412;20.970;2023-09-30T05:00:55;100762.75;;;15.09;100.00
36062;BME280;22123;52.412;20.970;2023-09-30T05:03:20;100723.94;;;14.87;100.00
36062;BME280;22123;52.412;20.970;2023-09-30T05:05:46;100763.19;;;15.13;100.00
36062;BME280;22123;52.412;20.970;2023-09-30T05:08:12;100767.19;;;15.17;100.00
36062;BME280;22123;52.412;20.970;2023-09-30T05:10:38;100760.72;;;15.18;100.00
36062;BME280;22123;52.412;20.970;2023-09-30T05:13:03;100746.72;;;15.15;100.00
36062;BME280;22123;52.412;20.970;2023-09-30T05:15:29;100756.59;;;15.22;100.00
36062;BME280;22123;52.412;20.970;2023-09-30T05:17:55;100744.19;;;15.13;100.00
36062;BME280;22123;52.412;20.970;2023-09-30T05:20:21;100765.56;;;15.23;100.00
36062;BME280;22123;52.412;20.970;2023-09-30T05:22:46;100766.97;;;15.19;100.00
36062;BME280;22123;52.412;20.970;2023-09-30T05:25:13;100768.91;;;15.25;100.00
36062;BME280;22123;52.412;20.970;2023-09-30T05:27:39;100764.97;;;15.27;100.00
36062;BME280;22123;52.412;20.970;2023-09-30T05:30:05;100787.13;;;15.31;100.00
36062;BME280;22123;52.412;20.970;2023-09-30T05:32:31;100730.34;;;15.01;100.00
36062;BME280;22123;52.412;20.970;2023-09-30T05:34:57;100751.69;;;15.11;100.00
36062;BME280;22123;52.412;20.970;2023-09-30T05:37:24;100786.72;;;15.34;100.00
36062;BME280;22123;52.412;20.970;2023-09-30T05:39:50;100753.00;;;15.15;100.00
36062;BME280;22123;52.412;20.970;2023-09-30T05:42:16;100785.31;;;15.38;100.00
36062;BME280;22123;52.412;20.970;2023-09-30T05:44:42;100732.25;;;15.07;100.00
36062;BME280;22123;52.412;20.970;2023-09-30T05:47:08;100793.69;;;15.43;100.00
36062;BME280;22123;52.412;20.970;2023-09-30T05:49:34;100775.63;;;15.29;100.00
36062;BME280;22123;52.412;20.970;2023-09-30T05:51:59;100781.25;;;15.27;100.00
36062;BME280;22123;52.412;20.970;2023-09-30T05:54:25;100808.53;;;15.47;100.00
36062;BME280;22123;52.412;20.970;2023-09-30T05:56:51;100752.28;;;15.06;100.00
36062;BME280;22123;52.412;20.970;2023-09-30T05:59:17;100819.66;;;15.53;100.00
36062;BME280;22123;52.412;20.970;2023-09-30T06:01:42;100783.56;;;15.30;100.00
36062;BME280;22123;52.412;20.970;2023-09-30T06:04:08;100828.44;;;15.55;100.00
36062;BME280;22123;52.412;20.970;2023-09-30T06:06:34;100806.63;;;15.41;100.00
36062;BME280;22123;52.412;20.970;2023-09-30T06:09:00;100825.50;;;15.56;100.00
36062;BME280;22123;52.412;20.970;2023-09-30T06:11:26;100808.09;;;15.44;100.00
36062;BME280;22123;52.412;20.970;2023-09-30T06:13:52;100809.16;;;15.50;100.00
36062;BME280;22123;52.412;20.970;2023-09-30T06:16:17;100831.41;;;15.60;100.00
36062;BME280;22123;52.412;20.970;2023-09-30T06:18:43;100829.03;;;15.50;100.00
36062;BME280;22123;52.412;20.970;2023-09-30T06:21:09;100807.56;;;15.34;100.00
36062;BME280;22123;52.412;20.970;2023-09-30T06:23:35;100826.91;;;15.45;100.00
36062;BME280;22123;52.412;20.970;2023-09-30T06:26:00;100801.53;;;15.32;100.00
36062;BME280;22123;52.412;20.970;2023-09-30T06:28:26;100794.94;;;15.19;100.00
36062;BME280;22123;52.412;20.970;2023-09-30T06:30:52;100789.00;;;15.09;100.00
36062;BME280;22123;52.412;20.970;2023-09-30T06:33:18;100802.69;;;15.22;100.00
36062;BME280;22123;52.412;20.970;2023-09-30T06:35:44;100826.19;;;15.37;100.00
36062;BME280;22123;52.412;20.970;2023-09-30T06:38:10;100808.47;;;15.19;100.00
36062;BME280;22123;52.412;20.970;2023-09-30T06:40:36;100841.81;;;15.35;100.00
36062;BME280;22123;52.412;20.970;2023-09-30T06:43:01;100842.59;;;15.28;100.00
36062;BME280;22123;52.412;20.970;2023-09-30T06:45:27;100844.53;;;15.35;100.00
36062;BME280;22123;52.412;20.970;2023-09-30T06:47:53;100832.72;;;15.21;100.00
36062;BME280;22123;52.412;20.970;2023-09-30T06:50:19;100856.22;;;15.35;100.00
36062;BME280;22123;52.412;20.970;2023-09-30T06:52:44;100839.22;;;15.26;100.00
36062;BME280;22123;52.412;20.970;2023-09-30T06:55:10;100851.84;;;15.34;100.00
36062;BME280;22123;52.412;20.970;2023-09-30T06:57:37;100866.03;;;15.36;100.00
36062;BME280;22123;52.412;20.970;2023-09-30T07:00:11;100859.78;;;15.36;100.00
36062;BME280;22123;52.412;20.970;2023-09-30T07:02:38;100866.88;;;15.37;100.00
36062;BME280;22123;52.412;20.970;2023-09-30T07:05:08;100871.97;;;15.46;100.00
36062;BME280;22123;52.412;20.970;2023-09-30T07:07:34;100848.94;;;15.36;100.00
36062;BME280;22123;52.412;20.970;2023-09-30T07:10:00;100874.34;;;15.56;100.00
36062;BME280;22123;52.412;20.970;2023-09-30T07:12:26;100834.56;;;15.42;100.00
36062;BME280;22123;52.412;20.970;2023-09-30T07:14:52;100865.63;;;15.61;100.00
36062;BME280;22123;52.412;20.970;2023-09-30T07:17:18;100849.03;;;15.49;100.00
36062;BME280;22123;52.412;20.970;2023-09-30T07:19:44;100874.22;;;15.64;100.00
36062;BME280;22123;52.412;20.970;2023-09-30T07:22:10;100822.44;;;15.38;100.00
36062;BME280;22123;52.412;20.970;2023-09-30T07:24:35;100873.44;;;15.71;100.00
36062;BME280;22123;52.412;20.970;2023-09-30T07:27:02;100875.75;;;15.74;100.00
36062;BME280;22123;52.412;20.970;2023-09-30T07:29:28;100869.22;;;15.68;100.00
36062;BME280;22123;52.412;20.970;2023-09-30T07:31:53;100868.91;;;15.78;100.00
36062;BME280;22123;52.412;20.970;2023-09-30T07:34:19;100848.31;;;15.62;100.00
36062;BME280;22123;52.412;20.970;2023-09-30T07:36:45;100881.91;;;15.82;100.00
36062;BME280;22123;52.412;20.970;2023-09-30T07:39:11;100873.69;;;15.76;100.00
36062;BME280;22123;52.412;20.970;2023-09-30T07:41:37;100878.16;;;15.84;100.00
36062;BME280;22123;52.412;20.970;2023-09-30T07:44:03;100852.94;;;15.68;100.00
36062;BME280;22123;52.412;20.970;2023-09-30T07:46:29;100882.56;;;15.85;100.00
36062;BME280;22123;52.412;20.970;2023-09-30T07:48:54;100853.81;;;15.69;100.00
36062;BME280;22123;52.412;20.970;2023-09-30T07:51:20;100880.97;;;15.97;100.00
36062;BME280;22123;52.412;20.970;2023-09-30T07:53:46;100845.31;;;15.78;100.00
36062;BME280;22123;52.412;20.970;2023-09-30T07:56:13;100886.50;;;16.10;100.00
36062;BME280;22123;52.412;20.970;2023-09-30T07:58:38;100813.97;;;15.76;100.00
36062;BME280;22123;52.412;20.970;2023-09-30T08:01:04;100881.59;;;16.27;100.00
36062;BME280;22123;52.412;20.970;2023-09-30T08:03:30;100804.72;;;15.92;100.00
36062;BME280;22123;52.412;20.970;2023-09-30T08:05:56;100881.66;;;16.41;100.00
36062;BME280;22123;52.412;20.970;2023-09-30T08:08:22;100869.53;;;16.37;100.00
36062;BME280;22123;52.412;20.970;2023-09-30T08:10:47;100874.16;;;16.43;100.00
36062;BME280;22123;52.412;20.970;2023-09-30T08:13:13;100886.78;;;16.57;100.00
36062;BME280;22123;52.412;20.970;2023-09-30T08:15:39;100852.78;;;16.33;100.00
36062;BME280;22123;52.412;20.970;2023-09-30T08:18:05;100890.72;;;16.55;100.00
36062;BME280;22123;52.412;20.970;2023-09-30T08:20:30;100866.22;;;16.41;100.00
36062;BME280;22123;52.412;20.970;2023-09-30T08:22:56;100900.59;;;16.62;100.00
36062;BME280;22123;52.412;20.970;2023-09-30T08:25:22;100877.16;;;16.55;100.00
36062;BME280;22123;52.412;20.970;2023-09-30T08:27:48;100907.97;;;16.68;100.00
36062;BME280;22123;52.412;20.970;2023-09-30T08:30:14;100879.03;;;16.54;100.00
36062;BME280;22123;52.412;20.970;2023-09-30T08:32:39;100902.75;;;16.74;100.00
36062;BME280;22123;52.412;20.970;2023-09-30T08:35:06;100875.25;;;16.55;100.00
36062;BME280;22123;52.412;20.970;2023-09-30T08:37:32;100875.25;;;16.55;100.00
36062;BME280;22123;52.412;20.970;2023-09-30T08:39:58;100899.81;;;16.75;100.00
36062;BME280;22123;52.412;20.970;2023-09-30T08:42:23;100894.81;;;16.79;100.00
36062;BME280;22123;52.412;20.970;2023-09-30T08:44:53;100895.03;;;16.77;100.00
36062;BME280;22123;52.412;20.970;2023-09-30T08:47:18;100854.97;;;16.51;100.00
36062;BME280;22123;52.412;20.970;2023-09-30T08:49:44;100903.81;;;16.79;100.00
36062;BME280;22123;52.412;20.970;2023-09-30T08:52:11;100886.38;;;16.60;100.00
36062;BME280;22123;52.412;20.970;2023-09-30T08:54:39;100879.03;;;16.54;100.00
36062;BME280;22123;52.412;20.970;2023-09-30T08:57:07;100880.28;;;16.51;100.00
36062;BME280;22123;52.412;20.970;2023-09-30T08:59:35;100892.28;;;16.71;100.00
36062;BME280;22123;52.412;20.970;2023-09-30T09:02:01;100893.97;;;16.72;100.00
36062;BME280;22123;52.412;20.970;2023-09-30T09:04:28;100877.66;;;16.72;100.00
36062;BME280;22123;52.412;20.970;2023-09-30T09:06:54;100881.19;;;16.72;100.00
36062;BME280;22123;52.412;20.970;2023-09-30T09:09:19;100917.47;;;16.93;100.00
36062;BME280;22123;52.412;20.970;2023-09-30T09:11:45;100922.13;;;16.99;100.00
36062;BME280;22123;52.412;20.970;2023-09-30T09:14:11;100922.13;;;17.06;100.00
36062;BME280;22123;52.412;20.970;2023-09-30T09:16:50;100897.63;;;16.92;100.00
36062;BME280;22123;52.412;20.970;2023-09-30T09:19:16;100926.97;;;17.10;100.00
36062;BME280;22123;52.412;20.970;2023-09-30T09:21:55;100925.31;;;17.09;100.00
36062;BME280;22123;52.412;20.970;2023-09-30T09:24:31;100930.50;;;17.04;100.00
36062;BME280;22123;52.412;20.970;2023-09-30T09:27:17;100907.47;;;17.00;100.00
36062;BME280;22123;52.412;20.970;2023-09-30T09:29:43;100861.13;;;16.80;100.00
36062;BME280;22123;52.412;20.970;2023-09-30T09:32:14;100896.19;;;17.03;100.00
36062;BME280;22123;52.412;20.970;2023-09-30T09:34:41;100914.84;;;17.06;100.00
36062;BME280;22123;52.412;20.970;2023-09-30T09:37:15;100894.84;;;16.85;100.00
36062;BME280;22123;52.412;20.970;2023-09-30T09:39:57;100931.38;;;17.11;100.00
36062;BME280;22123;52.412;20.970;2023-09-30T09:42:28;100934.31;;;17.16;100.00
36062;BME280;22123;52.412;20.970;2023-09-30T09:44:56;100932.69;;;17.22;100.00
36062;BME280;22123;52.412;20.970;2023-09-30T09:47:23;100936.84;;;17.18;100.00
36062;BME280;22123;52.412;20.970;2023-09-30T09:49:53;100913.16;;;17.05;100.00
36062;BME280;22123;52.412;20.970;2023-09-30T09:52:20;100942.69;;;17.15;100.00
36062;BME280;22123;52.412;20.970;2023-09-30T09:54:46;100942.00;;;16.99;100.00
36062;BME280;22123;52.412;20.970;2023-09-30T09:57:12;100932.34;;;16.90;100.00
36062;BME280;22123;52.412;20.970;2023-09-30T09:59:39;100949.69;;;16.89;100.00
36062;BME280;22123;52.412;20.970;2023-09-30T10:02:11;100944.53;;;16.73;100.00
36062;BME280;22123;52.412;20.970;2023-09-30T10:04:37;100950.66;;;16.75;100.00
36062;BME280;22123;52.412;20.970;2023-09-30T10:07:03;100964.69;;;16.85;100.00
36062;BME280;22123;52.412;20.970;2023-09-30T10:09:30;100949.19;;;16.79;100.00
36062;BME280;22123;52.412;20.970;2023-09-30T10:11:59;100942.69;;;16.73;100.00
36062;BME280;22123;52.412;20.970;2023-09-30T10:14:32;100940.59;;;16.68;100.00
36062;BME280;22123;52.412;20.970;2023-09-30T10:16:59;100969.94;;;16.86;100.00
36062;BME280;22123;52.412;20.970;2023-09-30T10:19:25;100962.94;;;16.71;100.00
36062;BME280;22123;52.412;20.970;2023-09-30T10:24:38;100997.75;;;16.82;100.00
36062;BME280;22123;52.412;20.970;2023-09-30T10:29:57;101003.59;;;16.85;100.00
36062;BME280;22123;52.412;20.970;2023-09-30T10:35:19;101030.25;;;16.90;100.00
36062;BME280;22123;52.412;20.970;2023-09-30T10:37:46;101002.84;;;16.63;100.00
36062;BME280;22123;52.412;20.970;2023-09-30T10:40:32;101048.72;;;16.73;100.00
36062;BME280;22123;52.412;20.970;2023-09-30T10:43:00;101025.53;;;16.49;100.00
36062;BME280;22123;52.412;20.970;2023-09-30T10:50:57;101059.44;;;16.53;100.00
36062;BME280;22123;52.412;20.970;2023-09-30T10:53:23;101060.13;;;16.62;100.00
36062;BME280;22123;52.412;20.970;2023-09-30T10:55:55;101046.47;;;16.55;100.00
36062;BME280;22123;52.412;20.970;2023-09-30T10:58:21;101033.50;;;16.50;100.00
36062;BME280;22123;52.412;20.970;2023-09-30T11:00:55;101072.97;;;16.75;100.00
36062;BME280;22123;52.412;20.970;2023-09-30T11:03:21;101069.22;;;16.76;100.00
36062;BME280;22123;52.412;20.970;2023-09-30T11:05:48;101041.91;;;16.56;100.00
36062;BME280;22123;52.412;20.970;2023-09-30T11:08:16;101058.50;;;16.67;100.00
36062;BME280;22123;52.412;20.970;2023-09-30T11:10:51;101069.66;;;16.79;100.00
36062;BME280;22123;52.412;20.970;2023-09-30T11:13:18;101047.56;;;16.61;100.00
36062;BME280;22123;52.412;20.970;2023-09-30T11:15:44;101052.38;;;16.59;100.00
36062;BME280;22123;52.412;20.970;2023-09-30T11:20:41;101092.13;;;16.88;100.00
36062;BME280;22123;52.412;20.970;2023-09-30T11:23:07;101095.16;;;16.78;100.00
36062;BME280;22123;52.412;20.970;2023-09-30T11:25:37;101064.66;;;16.55;100.00
36062;BME280;22123;52.412;20.970;2023-09-30T11:28:17;101074.03;;;16.45;100.00
36062;BME280;22123;52.412;20.970;2023-09-30T11:30:57;101081.50;;;16.43;100.00
36062;BME280;22123;52.412;20.970;2023-09-30T11:33:23;101080.38;;;16.31;100.00
36062;BME280;22123;52.412;20.970;2023-09-30T11:36:15;101108.69;;;16.43;100.00
36062;BME280;22123;52.412;20.970;2023-09-30T11:38:45;101112.44;;;16.42;100.00
36062;BME280;22123;52.412;20.970;2023-09-30T11:41:12;101054.94;;;16.17;100.00
36062;BME280;22123;52.412;20.970;2023-09-30T11:43:38;101105.75;;;16.45;100.00
36062;BME280;22123;52.412;20.970;2023-09-30T11:46:04;101113.31;;;16.49;100.00
36062;BME280;22123;52.412;20.970;2023-09-30T11:48:30;101115.28;;;16.34;100.00
36062;BME280;22123;52.412;20.970;2023-09-30T11:50:56;101120.25;;;16.30;100.00
36062;BME280;22123;52.412;20.970;2023-09-30T11:53:24;101076.94;;;16.01;100.00
36062;BME280;22123;52.412;20.970;2023-09-30T11:55:50;101094.97;;;16.08;100.00
36062;BME280;22123;52.412;20.970;2023-09-30T11:58:16;101116.44;;;16.25;100.00
36062;BME280;22123;52.412;20.970;2023-09-30T12:00:42;101113.16;;;16.29;100.00
36062;BME280;22123;52.412;20.970;2023-09-30T12:03:07;101114.81;;;16.30;100.00
36062;BME280;22123;52.412;20.970;2023-09-30T12:05:33;101088.75;;;16.14;100.00
36062;BME280;22123;52.412;20.970;2023-09-30T12:07:59;101114.06;;;16.37;100.00
36062;BME280;22123;52.412;20.970;2023-09-30T12:10:25;101093.81;;;16.17;100.00
36062;BME280;22123;52.412;20.970;2023-09-30T12:12:50;101127.06;;;16.41;100.00
36062;BME280;22123;52.412;20.970;2023-09-30T12:15:16;101106.75;;;16.37;100.00
36062;BME280;22123;52.412;20.970;2023-09-30T12:17:42;101122.00;;;16.60;100.00
36062;BME280;22123;52.412;20.970;2023-09-30T12:20:08;101075.75;;;16.31;100.00
36062;BME280;22123;52.412;20.970;2023-09-30T12:22:34;101112.47;;;16.71;100.00
36062;BME280;22123;52.412;20.970;2023-09-30T12:25:00;101091.34;;;16.73;100.00
36062;BME280;22123;52.412;20.970;2023-09-30T12:27:26;101117.38;;;17.10;100.00
36062;BME280;22123;52.412;20.970;2023-09-30T12:29:51;101129.78;;;17.19;100.00
36062;BME280;22123;52.412;20.970;2023-09-30T12:32:17;101110.16;;;17.24;100.00
36062;BME280;22123;52.412;20.970;2023-09-30T12:34:43;101126.78;;;17.43;100.00
36062;BME280;22123;52.412;20.970;2023-09-30T12:37:09;101107.28;;;17.32;100.00
36062;BME280;22123;52.412;20.970;2023-09-30T12:39:35;101093.06;;;17.44;100.00
36062;BME280;22123;52.412;20.970;2023-09-30T12:42:00;101111.78;;;17.60;100.00
36062;BME280;22123;52.412;20.970;2023-09-30T12:44:26;101064.16;;;17.36;100.00